Time;durP1;ratioP1;P1;durP2;ratioP2;P2;SDS_P1;SDS_P2;PMS_P1;PMS_P2;Temp;Humidity;BMP_temperature;BMP_pressure;BME280_temperature;BME280_humidity;BME280_pressure;Samples;Min_cycle;Max_cycle;Signal;HPM_P1;HPM_P2
2021/01/07 00:00:43;;;;;;;11.20;5.80;;;3.60;99.90;;;;;;5071967;28;20025;-69
2021/01/07 00:03:09;;;;;;;10.98;6.85;;;3.70;99.90;;;;;;5074109;28;20118;-70
2021/01/07 00:05:35;;;;;;;11.05;6.20;;;3.80;99.90;;;;;;5072361;28;20044;-70
2021/01/07 00:08:01;;;;;;;11.70;6.78;;;3.80;99.90;;;;;;5072365;28;20469;-70
2021/01/07 00:10:27;;;;;;;11.15;6.40;;;3.80;99.90;;;;;;5072387;28;20029;-70
2021/01/07 00:12:53;;;;;;;10.30;5.90;;;3.80;99.90;;;;;;5072465;28;20028;-70
2021/01/07 00:15:19;;;;;;;10.05;6.35;;;3.80;99.90;;;;;;5072100;28;20028;-70
2021/01/07 00:17:45;;;;;;;11.65;5.68;;;3.70;99.90;;;;;;5073769;28;20029;-70
2021/01/07 00:20:12;;;;;;;8.65;6.00;;;3.80;99.90;;;;;;5072312;28;20484;-69
2021/01/07 00:22:39;;;;;;;10.25;6.25;;;3.70;99.90;;;;;;5071061;28;20037;-70
2021/01/07 00:25:06;;;;;;;7.30;4.90;;;3.80;99.90;;;;;;5065475;28;20099;-70
2021/01/07 00:27:32;;;;;;;8.23;5.53;;;3.80;99.90;;;;;;5054177;28;20033;-70
2021/01/07 00:29:57;;;;;;;9.52;5.55;;;3.80;99.90;;;;;;5073606;28;20078;-70
2021/01/07 00:32:23;;;;;;;7.38;5.18;;;3.80;99.90;;;;;;5053560;28;20045;-70
2021/01/07 00:34:49;;;;;;;11.27;6.18;;;3.80;99.90;;;;;;5065105;28;20048;-70
2021/01/07 00:37:15;;;;;;;7.22;4.75;;;3.80;99.90;;;;;;5070666;28;20375;-70
2021/01/07 00:39:40;;;;;;;8.27;5.28;;;3.80;99.90;;;;;;5072201;28;20039;-71
2021/01/07 00:42:06;;;;;;;7.05;4.68;;;3.80;99.90;;;;;;5073584;28;20100;-70
2021/01/07 00:44:32;;;;;;;10.07;5.45;;;3.90;99.90;;;;;;5070323;28;20462;-70
2021/01/07 00:46:58;;;;;;;7.75;4.60;;;3.90;99.90;;;;;;5071789;28;20072;-70
2021/01/07 00:49:23;;;;;;;8.63;5.07;;;3.80;99.90;;;;;;5071717;28;20035;-70
2021/01/07 00:51:49;;;;;;;7.35;4.55;;;3.90;99.90;;;;;;5071838;28;20123;-70
2021/01/07 00:54:15;;;;;;;8.57;5.22;;;4.00;99.90;;;;;;5073186;28;20091;-70
2021/01/07 00:56:41;;;;;;;6.55;4.43;;;3.90;99.90;;;;;;5072062;28;20495;-70
2021/01/07 00:59:07;;;;;;;7.03;4.28;;;3.90;99.90;;;;;;5070749;28;20083;-70
2021/01/07 01:01:41;;;;;;;8.70;4.57;;;3.80;99.90;;;;;;5071697;28;20127;-70
2021/01/07 01:04:07;;;;;;;8.55;4.80;;;4.00;99.90;;;;;;5064874;28;20118;-70
2021/01/07 01:06:32;;;;;;;7.40;4.43;;;3.90;99.90;;;;;;5051534;28;20076;-72
2021/01/07 01:08:58;;;;;;;7.85;4.65;;;3.80;99.90;;;;;;5053078;28;20413;-70
2021/01/07 01:11:24;;;;;;;6.95;4.35;;;3.80;99.90;;;;;;5051811;28;20424;-70
2021/01/07 01:13:50;;;;;;;5.82;3.80;;;3.80;99.90;;;;;;5064434;28;20029;-69
2021/01/07 01:16:17;;;;;;;7.53;4.65;;;3.80;99.90;;;;;;5071309;28;20029;-71
2021/01/07 01:18:42;;;;;;;8.70;4.75;;;3.80;99.90;;;;;;5070502;28;20033;-70
2021/01/07 01:21:08;;;;;;;7.35;4.68;;;3.80;99.90;;;;;;5073352;28;20025;-70
2021/01/07 01:23:34;;;;;;;6.85;4.25;;;3.70;99.90;;;;;;5071367;28;20060;-71
2021/01/07 01:25:59;;;;;;;7.10;4.78;;;3.70;99.90;;;;;;5071469;28;20075;-70
2021/01/07 01:28:26;;;;;;;7.05;4.35;;;3.60;99.90;;;;;;5075221;28;20085;-72
2021/01/07 01:30:52;;;;;;;6.97;4.57;;;3.60;99.90;;;;;;5075439;28;20032;-71
2021/01/07 01:33:17;;;;;;;7.45;4.70;;;3.60;99.90;;;;;;5074537;28;20344;-71
2021/01/07 01:35:43;;;;;;;7.22;4.53;;;3.60;99.90;;;;;;5057048;28;20362;-70
2021/01/07 01:38:09;;;;;;;6.20;4.18;;;3.50;99.90;;;;;;5070769;28;20076;-69
2021/01/07 01:40:35;;;;;;;6.78;4.20;;;3.70;99.90;;;;;;5075421;28;20055;-70
2021/01/07 01:43:00;;;;;;;7.32;3.97;;;3.70;99.90;;;;;;5075430;28;20037;-71
2021/01/07 01:45:26;;;;;;;7.85;4.60;;;3.70;99.90;;;;;;5075557;28;20024;-71
2021/01/07 01:47:51;;;;;;;7.50;4.45;;;3.90;99.90;;;;;;5076879;28;20020;-71
2021/01/07 01:50:17;;;;;;;5.63;3.75;;;3.70;99.90;;;;;;5075115;28;20117;-70
2021/01/07 01:52:43;;;;;;;7.82;4.38;;;3.70;99.90;;;;;;5074852;28;20031;-70
2021/01/07 01:55:09;;;;;;;9.05;4.75;;;3.60;99.90;;;;;;5075149;28;20044;-70
2021/01/07 01:57:37;;;;;;;7.28;3.90;;;3.70;99.90;;;;;;5074686;28;20035;-70
2021/01/07 02:00:05;;;;;;;5.93;3.95;;;3.80;99.90;;;;;;5076597;28;20425;-70
2021/01/07 02:02:30;;;;;;;6.35;3.72;;;3.90;99.90;;;;;;5074810;28;20469;-70
2021/01/07 02:04:56;;;;;;;7.20;4.45;;;3.70;99.90;;;;;;5074800;28;20044;-71
2021/01/07 02:07:26;;;;;;;7.10;4.03;;;3.60;99.90;;;;;;5073662;28;20029;-71
2021/01/07 02:09:52;;;;;;;7.97;4.18;;;3.80;99.90;;;;;;5074776;28;20036;-70
2021/01/07 02:12:18;;;;;;;7.45;4.47;;;3.70;99.90;;;;;;5074894;28;20028;-69
2021/01/07 02:14:45;;;;;;;7.78;4.05;;;3.70;99.90;;;;;;5076108;28;20450;-70
2021/01/07 02:17:11;;;;;;;7.75;4.47;;;3.70;99.90;;;;;;5074568;28;20033;-70
2021/01/07 02:19:37;;;;;;;6.35;3.97;;;3.70;99.90;;;;;;5074771;28;20385;-70
2021/01/07 02:22:04;;;;;;;7.05;3.75;;;3.70;99.90;;;;;;5074505;28;20505;-71
2021/01/07 02:24:30;;;;;;;7.15;4.35;;;3.80;99.90;;;;;;5074291;28;20028;-70
2021/01/07 02:27:02;;;;;;;5.90;4.07;;;3.70;99.90;;;;;;5076050;28;20024;-69
2021/01/07 02:29:27;;;;;;;7.43;3.65;;;3.70;99.90;;;;;;5074563;28;20048;-70
2021/01/07 02:31:53;;;;;;;7.50;4.25;;;3.80;99.90;;;;;;5074136;28;20029;-70
2021/01/07 02:34:18;;;;;;;6.68;4.28;;;3.60;99.90;;;;;;5074492;28;20044;-70
2021/01/07 02:36:44;;;;;;;6.22;3.92;;;3.80;99.90;;;;;;5074218;28;20453;-70
2021/01/07 02:39:10;;;;;;;8.07;4.43;;;3.90;99.90;;;;;;5074479;28;20480;-69
2021/01/07 02:41:36;;;;;;;5.97;4.10;;;4.00;99.90;;;;;;5074211;28;20047;-70
2021/01/07 02:44:01;;;;;;;6.10;3.85;;;4.00;99.90;;;;;;5074174;28;20040;-70
2021/01/07 02:46:27;;;;;;;7.90;4.40;;;3.70;99.90;;;;;;5074170;28;20036;-70
2021/01/07 02:48:53;;;;;;;8.05;4.07;;;3.60;99.90;;;;;;5074280;28;20119;-70
2021/01/07 02:51:18;;;;;;;7.53;4.60;;;3.80;99.90;;;;;;5074233;28;20063;-71
2021/01/07 02:53:44;;;;;;;7.63;4.45;;;3.70;99.90;;;;;;5075523;28;20097;-70
2021/01/07 02:56:09;;;;;;;9.25;3.90;;;3.70;99.90;;;;;;5073485;28;20094;-70
2021/01/07 02:58:35;;;;;;;7.90;4.22;;;3.80;99.90;;;;;;5073692;28;20366;-71
2021/01/07 03:01:01;;;;;;;7.97;4.70;;;3.70;99.90;;;;;;5072534;28;20419;-70
2021/01/07 03:03:26;;;;;;;6.35;3.85;;;3.70;99.90;;;;;;5073668;28;20090;-70
2021/01/07 03:05:52;;;;;;;7.68;4.03;;;3.60;99.90;;;;;;5075266;28;20032;-70
2021/01/07 03:08:17;;;;;;;6.95;4.72;;;3.80;99.90;;;;;;5073916;28;20029;-70
2021/01/07 03:10:43;;;;;;;5.55;3.72;;;3.70;99.90;;;;;;5061818;28;20131;-69
2021/01/07 03:13:09;;;;;;;7.97;4.75;;;3.70;99.90;;;;;;5052518;28;20037;-70
2021/01/07 03:15:34;;;;;;;9.23;4.95;;;3.80;99.90;;;;;;5053674;28;20377;-70
2021/01/07 03:18:00;;;;;;;9.57;4.88;;;3.80;99.90;;;;;;5055092;28;20037;-71
2021/01/07 03:20:25;;;;;;;8.70;5.30;;;3.80;99.90;;;;;;5071330;28;20051;-69
2021/01/07 03:22:51;;;;;;;9.57;5.72;;;3.80;99.90;;;;;;5073298;28;20036;-70
2021/01/07 03:25:17;;;;;;;9.27;5.18;;;3.80;99.90;;;;;;5064298;28;20033;-70
2021/01/07 03:27:43;;;;;;;10.35;5.80;;;3.80;99.90;;;;;;5053132;28;20054;-70
2021/01/07 03:30:10;;;;;;;11.18;6.28;;;3.70;99.90;;;;;;5054976;28;20033;-68
2021/01/07 03:32:36;;;;;;;9.07;5.57;;;3.60;99.90;;;;;;5072247;28;20472;-70
2021/01/07 03:35:06;;;;;;;12.27;6.43;;;3.50;99.90;;;;;;5073060;28;20044;-70
2021/01/07 03:37:32;;;;;;;10.70;5.78;;;3.70;99.90;;;;;;5072754;28;20044;-70
2021/01/07 03:39:58;;;;;;;9.65;5.50;;;3.60;99.90;;;;;;5073146;28;20551;-70
2021/01/07 03:42:24;;;;;;;12.48;6.07;;;3.70;99.90;;;;;;5073148;28;20112;-69
2021/01/07 03:44:49;;;;;;;10.70;5.40;;;3.50;99.90;;;;;;5074551;28;20334;-69
2021/01/07 03:47:15;;;;;;;10.25;5.85;;;3.60;99.90;;;;;;5072946;28;20150;-69
2021/01/07 03:49:41;;;;;;;10.57;5.30;;;3.50;99.90;;;;;;5072027;28;20108;-69
2021/01/07 03:52:06;;;;;;;11.80;6.18;;;3.40;99.90;;;;;;5073123;28;20033;-69
2021/01/07 03:54:32;;;;;;;10.38;5.85;;;3.50;99.90;;;;;;5072950;28;20017;-69
2021/01/07 03:56:57;;;;;;;13.18;6.03;;;3.40;99.90;;;;;;5073481;28;20453;-69
2021/01/07 03:59:23;;;;;;;12.85;6.18;;;3.40;99.90;;;;;;5072777;28;20102;-68
2021/01/07 04:01:49;;;;;;;11.68;6.15;;;3.40;99.90;;;;;;5072487;28;20040;-69
2021/01/07 04:04:14;;;;;;;11.52;6.20;;;3.40;99.90;;;;;;5072420;28;20028;-70
2021/01/07 04:06:40;;;;;;;10.88;6.10;;;3.50;99.90;;;;;;5068868;28;20033;-69
2021/01/07 04:09:06;;;;;;;14.18;6.97;;;3.30;99.90;;;;;;5054121;28;20025;-69
2021/01/07 04:11:31;;;;;;;13.88;6.18;;;3.20;99.90;;;;;;5071027;28;20089;-69
2021/01/07 04:13:57;;;;;;;13.32;6.82;;;3.30;99.90;;;;;;5058531;28;20036;-69
2021/01/07 04:16:24;;;;;;;12.60;5.80;;;3.40;99.90;;;;;;5061489;28;20039;-69
2021/01/07 04:18:49;;;;;;;12.65;6.70;;;3.40;99.90;;;;;;5068106;28;20094;-69
2021/01/07 04:21:19;;;;;;;10.57;6.13;;;3.50;99.90;;;;;;5053601;28;20463;-69
2021/01/07 04:23:46;;;;;;;13.85;6.68;;;3.60;99.90;;;;;;5052648;28;20075;-69
2021/01/07 04:26:13;;;;;;;12.32;6.00;;;3.50;99.90;;;;;;5068214;28;20365;-71
2021/01/07 04:28:39;;;;;;;13.20;7.60;;;3.50;99.90;;;;;;5072466;28;20131;-69
2021/01/07 04:31:04;;;;;;;15.05;7.30;;;3.50;99.90;;;;;;5071405;28;20107;-68
2021/01/07 04:33:30;;;;;;;12.77;7.20;;;3.50;99.90;;;;;;5072101;28;20358;-69
2021/01/07 04:35:55;;;;;;;12.48;7.05;;;3.50;99.90;;;;;;5073426;28;20021;-69
2021/01/07 04:38:21;;;;;;;11.82;6.60;;;3.60;99.90;;;;;;5071742;28;20052;-69
2021/01/07 04:40:47;;;;;;;12.93;6.90;;;3.50;99.90;;;;;;5071849;28;20090;-69
2021/01/07 04:43:12;;;;;;;13.93;7.25;;;3.60;99.90;;;;;;5072124;28;20074;-69
2021/01/07 04:45:38;;;;;;;12.50;7.55;;;3.50;99.90;;;;;;5071884;28;20032;-70
2021/01/07 04:48:05;;;;;;;13.32;7.07;;;3.60;99.90;;;;;;5073327;28;20040;-70
2021/01/07 04:50:31;;;;;;;14.60;7.65;;;3.60;99.90;;;;;;5072007;28;20045;-67
2021/01/07 04:52:56;;;;;;;13.80;7.85;;;3.60;99.90;;;;;;5071583;28;20111;-68
2021/01/07 04:55:22;;;;;;;13.15;7.20;;;3.50;99.90;;;;;;5071574;28;20036;-69
2021/01/07 04:57:49;;;;;;;16.58;7.80;;;3.40;99.90;;;;;;5070545;28;20067;-70
2021/01/07 05:00:15;;;;;;;13.90;7.33;;;3.50;99.90;;;;;;5073151;28;20477;-70
2021/01/07 05:02:42;;;;;;;13.95;6.97;;;3.50;99.90;;;;;;5070828;28;20063;-69
2021/01/07 05:05:08;;;;;;;16.90;8.20;;;3.60;99.90;;;;;;5071756;28;20036;-69
2021/01/07 05:07:38;;;;;;;12.07;7.30;;;3.70;99.90;;;;;;5071619;28;20032;-70
2021/01/07 05:10:05;;;;;;;13.48;7.32;;;3.50;99.90;;;;;;5072049;28;20032;-70
2021/01/07 05:12:31;;;;;;;16.10;8.50;;;3.60;99.90;;;;;;5069721;28;20021;-70
2021/01/07 05:14:56;;;;;;;12.57;6.93;;;3.60;99.90;;;;;;5052891;28;20043;-69
2021/01/07 05:17:23;;;;;;;12.57;7.22;;;3.40;99.90;;;;;;5068954;28;20523;-69
2021/01/07 05:19:49;;;;;;;13.35;7.53;;;3.60;99.90;;;;;;5071572;28;20036;-71
2021/01/07 05:22:14;;;;;;;13.48;7.68;;;3.60;99.90;;;;;;5071492;28;20060;-69
2021/01/07 05:24:40;;;;;;;11.93;7.40;;;3.70;99.90;;;;;;5071238;28;20028;-70
2021/01/07 05:27:15;;;;;;;11.82;6.97;;;3.80;99.90;;;;;;5073248;28;20025;-70
2021/01/07 05:29:42;;;;;;;13.48;7.43;;;3.60;99.90;;;;;;5070169;28;20033;-69
2021/01/07 05:32:09;;;;;;;14.90;7.95;;;3.60;99.90;;;;;;5071532;28;20051;-69
2021/01/07 05:34:50;;;;;;;14.57;7.55;;;3.60;99.90;;;;;;5070490;28;20349;-70
2021/01/07 05:37:18;;;;;;;11.85;6.63;;;3.60;99.90;;;;;;5071072;28;20489;-70
2021/01/07 05:39:48;;;;;;;15.00;7.68;;;3.60;99.90;;;;;;5071519;28;20459;-69
2021/01/07 05:42:14;;;;;;;14.93;7.70;;;3.70;99.90;;;;;;5072755;28;20017;-70
2021/01/07 05:44:47;;;;;;;12.20;7.65;;;3.80;99.90;;;;;;5070176;28;20475;-70
2021/01/07 05:47:29;;;;;;;13.77;7.10;;;3.70;99.90;;;;;;5071062;28;20033;-70
2021/01/07 05:49:55;;;;;;;13.50;7.38;;;3.70;99.90;;;;;;5071141;28;20082;-70
2021/01/07 05:52:22;;;;;;;14.75;8.25;;;3.70;99.90;;;;;;5071068;28;20039;-70
2021/01/07 05:54:49;;;;;;;13.43;6.82;;;3.80;99.90;;;;;;5071334;28;20025;-70
2021/01/07 05:57:19;;;;;;;13.50;7.90;;;3.90;99.90;;;;;;5072564;28;20020;-70
2021/01/07 05:59:48;;;;;;;12.70;7.35;;;3.60;99.90;;;;;;5071587;28;20411;-70
2021/01/07 06:02:16;;;;;;;12.32;7.10;;;3.50;99.90;;;;;;5070804;28;20028;-70
2021/01/07 06:04:49;;;;;;;13.27;7.50;;;3.50;99.90;;;;;;5070839;28;20028;-69
2021/01/07 06:07:16;;;;;;;11.05;6.65;;;3.70;99.90;;;;;;5071189;28;20369;-70
2021/01/07 06:09:45;;;;;;;12.45;7.25;;;3.60;99.90;;;;;;5070024;28;20029;-69
2021/01/07 06:12:12;;;;;;;12.32;7.18;;;3.70;99.90;;;;;;5072547;28;20024;-70
2021/01/07 06:14:44;;;;;;;15.77;7.30;;;3.70;99.90;;;;;;5074985;28;20036;-70
2021/01/07 06:17:11;;;;;;;12.40;6.97;;;3.60;99.90;;;;;;5074786;28;20369;-70
2021/01/07 06:19:40;;;;;;;11.45;6.80;;;3.60;99.90;;;;;;5073635;28;20040;-69
2021/01/07 06:22:11;;;;;;;11.43;6.75;;;3.60;99.90;;;;;;5074488;28;20076;-70
2021/01/07 06:24:38;;;;;;;11.07;6.45;;;3.80;99.90;;;;;;5074493;28;20024;-69
2021/01/07 06:27:25;;;;;;;11.77;6.68;;;3.70;99.90;;;;;;5075321;28;20404;-71
2021/01/07 06:30:03;;;;;;;11.77;6.50;;;3.70;99.90;;;;;;5074561;28;20065;-70
2021/01/07 06:32:29;;;;;;;10.80;6.20;;;3.80;99.90;;;;;;5056004;28;20680;-70
2021/01/07 06:34:58;;;;;;;11.07;6.60;;;3.70;99.90;;;;;;5067423;28;20032;-69
2021/01/07 06:37:34;;;;;;;12.02;6.18;;;3.80;99.90;;;;;;5073962;28;20044;-71
2021/01/07 06:40:02;;;;;;;12.68;6.50;;;3.70;99.90;;;;;;5074345;28;20055;-70
2021/01/07 06:42:28;;;;;;;9.43;6.15;;;3.80;99.90;;;;;;5073856;28;20024;-70
2021/01/07 06:44:57;;;;;;;10.32;6.40;;;3.70;99.90;;;;;;5075628;28;20039;-71
2021/01/07 06:47:22;;;;;;;11.35;7.03;;;3.80;99.90;;;;;;5074256;28;20036;-71
2021/01/07 06:49:49;;;;;;;12.50;6.53;;;3.80;99.90;;;;;;5073756;28;20102;-70
2021/01/07 06:52:15;;;;;;;12.68;6.40;;;3.80;99.90;;;;;;5072850;28;20024;-71
2021/01/07 06:54:45;;;;;;;9.77;5.45;;;3.80;99.90;;;;;;5073845;28;20024;-70
2021/01/07 06:57:17;;;;;;;12.10;6.25;;;3.60;99.90;;;;;;5075296;28;20115;-70
2021/01/07 07:00:04;;;;;;;13.70;6.90;;;3.60;99.90;;;;;;5073116;28;20047;-69
2021/01/07 07:02:31;;;;;;;11.10;6.30;;;3.60;99.90;;;;;;5073787;28;20021;-70
2021/01/07 07:05:10;;;;;;;12.93;5.50;;;3.50;99.90;;;;;;5073745;28;20370;-70
2021/01/07 07:07:39;;;;;;;9.13;5.97;;;3.60;99.90;;;;;;5073187;28;20462;-69
2021/01/07 07:10:22;;;;;;;11.10;6.25;;;3.60;99.90;;;;;;5073311;28;20068;-69
2021/01/07 07:12:54;;;;;;;10.82;6.05;;;3.70;99.90;;;;;;5073497;28;20035;-70
2021/01/07 07:15:24;;;;;;;12.35;6.85;;;3.70;99.90;;;;;;5073563;28;20017;-71
2021/01/07 07:17:54;;;;;;;11.38;6.45;;;3.80;99.90;;;;;;5075313;28;20349;-71
2021/01/07 07:20:24;;;;;;;13.13;6.60;;;3.80;99.90;;;;;;5073455;28;20097;-71
2021/01/07 07:22:51;;;;;;;12.40;6.50;;;3.90;99.90;;;;;;5073452;28;20105;-70
2021/01/07 07:25:27;;;;;;;12.32;6.88;;;4.00;99.90;;;;;;5072136;28;20044;-70
2021/01/07 07:27:54;;;;;;;10.73;6.10;;;4.00;99.90;;;;;;5073367;28;20075;-71
2021/01/07 07:30:32;;;;;;;15.55;7.97;;;4.00;99.90;;;;;;5071742;28;20116;-70
2021/01/07 07:32:59;;;;;;;12.43;6.53;;;3.80;99.90;;;;;;5054674;28;20021;-70
2021/01/07 07:35:27;;;;;;;12.00;6.40;;;3.80;99.90;;;;;;5053215;28;20076;-71
2021/01/07 07:37:53;;;;;;;;;;;3.90;99.90;;;;;;5066650;28;20107;-72
2021/01/07 07:40:39;;;;;;;11.90;6.68;;;4.00;99.90;;;;;;5064249;28;20289;-71
2021/01/07 07:43:06;;;;;;;11.32;6.75;;;4.00;99.90;;;;;;5053113;28;20481;-75
2021/01/07 07:45:33;;;;;;;13.63;6.78;;;3.90;99.90;;;;;;5054339;28;20029;-77
2021/01/07 07:48:00;;;;;;;11.88;6.47;;;3.90;99.90;;;;;;5074709;28;20048;-76
2021/01/07 07:50:28;;;;;;;14.35;6.82;;;4.10;99.90;;;;;;5072804;28;20024;-76
2021/01/07 07:53:14;;;;;;;10.98;6.65;;;4.10;99.90;;;;;;5072523;28;20047;-70
2021/01/07 07:55:41;;;;;;;13.80;7.45;;;4.00;99.90;;;;;;5069904;28;20064;-78
2021/01/07 07:58:11;;;;;;;15.07;6.15;;;4.10;99.90;;;;;;5046044;28;20033;-75
2021/01/07 08:00:37;;;;;;;10.43;6.10;;;4.20;99.90;;;;;;5035572;28;20493;-78
2021/01/07 08:03:03;;;;;;;10.52;6.63;;;4.20;99.90;;;;;;5054731;28;20040;-70
2021/01/07 08:05:31;;;;;;;10.93;7.25;;;4.10;99.90;;;;;;5052635;28;20053;-78
2021/01/07 08:07:57;;;;;;;9.43;5.95;;;4.20;99.90;;;;;;5052898;28;20032;-73
2021/01/07 08:10:24;;;;;;;10.43;6.00;;;4.10;99.90;;;;;;5052295;28;20021;-79
2021/01/07 08:12:51;;;;;;;11.23;6.05;;;4.20;99.90;;;;;;5048317;28;20036;-77
2021/01/07 08:15:30;;;;;;;11.45;6.05;;;4.10;99.90;;;;;;5033154;28;20117;-77
2021/01/07 08:18:13;;;;;;;12.30;6.30;;;4.20;99.90;;;;;;5032916;28;20048;-77
2021/01/07 08:20:38;;;;;;;12.40;6.32;;;4.20;99.90;;;;;;5032311;28;20091;-78
2021/01/07 08:23:09;;;;;;;12.68;6.25;;;4.30;99.90;;;;;;5032251;28;20045;-77
2021/01/07 08:25:34;;;;;;;10.35;5.72;;;4.20;99.90;;;;;;5041682;28;20481;-75
2021/01/07 08:28:11;;;;;;;10.50;6.00;;;4.20;99.90;;;;;;5051987;28;20095;-75
2021/01/07 08:30:42;;;;;;;10.25;5.85;;;4.10;99.90;;;;;;5052034;28;20017;-70
2021/01/07 08:33:09;;;;;;;13.32;6.55;;;4.50;99.90;;;;;;5053638;28;20103;-71
2021/01/07 08:35:36;;;;;;;9.27;5.95;;;4.20;99.90;;;;;;5061689;28;20040;-72
2021/01/07 08:38:02;;;;;;;11.80;6.70;;;4.30;99.90;;;;;;5071836;28;20140;-72
2021/01/07 08:40:28;;;;;;;9.63;5.90;;;4.40;99.90;;;;;;5072395;28;20476;-70
2021/01/07 08:42:55;;;;;;;9.93;5.93;;;4.40;99.90;;;;;;5067238;28;20167;-70
2021/01/07 08:45:27;;;;;;;8.40;5.32;;;4.20;99.90;;;;;;5052025;28;20029;-70
2021/01/07 08:48:07;;;;;;;10.93;5.93;;;4.20;99.90;;;;;;5052745;28;20020;-77
2021/01/07 08:50:34;;;;;;;12.52;6.75;;;4.30;99.90;;;;;;5051813;28;20396;-78
2021/01/07 08:53:06;;;;;;;8.48;5.50;;;4.30;99.90;;;;;;5051020;28;20068;-81
2021/01/07 08:55:51;;;;;;;10.00;6.13;;;4.30;99.90;;;;;;5051187;28;20041;-70
2021/01/07 08:58:26;;;;;;;8.10;5.22;;;4.30;99.90;;;;;;5052032;28;20029;-70
2021/01/07 09:00:53;;;;;;;11.50;5.75;;;4.40;99.90;;;;;;5052224;28;20033;-71
2021/01/07 09:03:20;;;;;;;9.13;5.50;;;4.30;99.90;;;;;;5051156;28;20029;-69
2021/01/07 09:05:46;;;;;;;9.30;5.57;;;4.50;99.90;;;;;;5073397;28;20028;-76
2021/01/07 09:08:14;;;;;;;8.10;4.93;;;4.50;99.90;;;;;;5070748;28;20043;-71
2021/01/07 09:10:41;;;;;;;9.88;5.63;;;4.30;99.90;;;;;;5071793;28;20090;-71
2021/01/07 09:13:22;;;;;;;9.13;5.50;;;4.50;99.90;;;;;;5071912;28;20124;-79
2021/01/07 09:15:49;;;;;;;10.60;5.32;;;4.60;99.90;;;;;;5071688;28;20028;-70
2021/01/07 09:18:19;;;;;;;12.20;5.50;;;4.60;99.90;;;;;;5073625;28;20050;-70
2021/01/07 09:20:45;;;;;;;8.35;4.60;;;4.50;99.90;;;;;;5070591;28;20044;-71
2021/01/07 09:23:15;;;;;;;8.13;4.60;;;4.50;99.90;;;;;;5071244;28;20037;-77
2021/01/07 09:25:40;;;;;;;8.82;5.30;;;4.60;99.90;;;;;;5071823;28;20033;-70
2021/01/07 09:28:06;;;;;;;9.95;4.90;;;4.60;99.90;;;;;;5072175;28;20409;-83
2021/01/07 09:30:32;;;;;;;7.95;4.70;;;4.70;99.90;;;;;;5071844;28;20020;-71
2021/01/07 09:32:58;;;;;;;7.93;4.65;;;4.50;99.90;;;;;;5073222;28;20042;-74
2021/01/07 09:35:25;;;;;;;7.95;4.78;;;4.50;99.90;;;;;;5071720;28;20037;-73
2021/01/07 09:37:52;;;;;;;10.00;5.07;;;4.60;99.90;;;;;;5071121;28;20060;-72
2021/01/07 09:40:19;;;;;;;9.70;5.50;;;4.60;99.90;;;;;;5071399;28;20311;-71
2021/01/07 09:42:45;;;;;;;9.02;4.90;;;4.60;99.90;;;;;;5071374;28;20417;-71
2021/01/07 09:45:12;;;;;;;7.03;4.43;;;4.70;99.90;;;;;;5071929;28;20024;-75
2021/01/07 09:47:38;;;;;;;6.40;4.30;;;4.60;99.90;;;;;;5052600;28;20091;-71
2021/01/07 09:50:06;;;;;;;7.00;4.65;;;4.50;99.90;;;;;;5055530;28;20040;-72
2021/01/07 09:52:32;;;;;;;8.93;4.35;;;4.40;99.90;;;;;;5055593;28;20021;-69
2021/01/07 09:54:59;;;;;;;8.15;4.60;;;4.50;99.90;;;;;;5055254;28;20033;-72
2021/01/07 09:57:25;;;;;;;6.63;4.47;;;4.40;99.90;;;;;;5055153;28;20036;-71
2021/01/07 09:59:50;;;;;;;7.18;4.10;;;4.50;99.90;;;;;;5075865;28;20021;-69
2021/01/07 10:02:16;;;;;;;9.57;5.25;;;4.40;99.90;;;;;;5074370;28;20365;-70
2021/01/07 10:04:43;;;;;;;8.63;5.47;;;4.60;99.90;;;;;;5075310;28;20411;-71
2021/01/07 10:07:09;;;;;;;6.80;4.00;;;4.60;99.90;;;;;;5075326;28;20044;-69
2021/01/07 10:09:35;;;;;;;5.50;4.22;;;4.60;99.90;;;;;;5074014;28;20027;-69
2021/01/07 10:12:01;;;;;;;8.10;5.22;;;4.60;99.90;;;;;;5076666;28;20025;-69
2021/01/07 10:14:28;;;;;;;8.60;4.57;;;4.80;99.90;;;;;;5075061;28;20094;-69
2021/01/07 10:16:57;;;;;;;9.25;5.38;;;4.80;99.90;;;;;;5074948;28;20068;-68
2021/01/07 10:19:31;;;;;;;10.55;4.68;;;5.00;99.90;;;;;;5075087;28;20028;-68
2021/01/07 10:22:08;;;;;;;10.15;4.53;;;4.90;99.90;;;;;;5074898;28;20523;-71
2021/01/07 10:24:42;;;;;;;6.70;4.40;;;4.90;99.90;;;;;;5074869;28;20085;-69
2021/01/07 10:27:10;;;;;;;7.00;4.50;;;4.90;99.90;;;;;;5076275;28;20127;-70
2021/01/07 10:29:37;;;;;;;9.00;4.15;;;5.10;99.90;;;;;;5075081;28;20039;-70
2021/01/07 10:32:14;;;;;;;9.63;4.47;;;4.90;99.90;;;;;;5074741;28;20115;-69
2021/01/07 10:34:45;;;;;;;10.40;4.50;;;5.00;99.90;;;;;;5074864;28;20039;-71
2021/01/07 10:37:13;;;;;;;8.85;3.83;;;5.00;99.90;;;;;;5074734;28;20361;-69
2021/01/07 10:39:41;;;;;;;11.77;4.82;;;4.80;99.90;;;;;;5074495;28;20051;-71
2021/01/07 10:42:12;;;;;;;5.63;3.63;;;4.80;99.90;;;;;;5076025;28;20039;-69
2021/01/07 10:44:40;;;;;;;5.57;3.97;;;4.80;99.90;;;;;;5074650;28;20032;-70
2021/01/07 10:47:07;;;;;;;5.13;3.45;;;4.80;99.90;;;;;;5074478;28;20135;-69
2021/01/07 10:49:34;;;;;;;8.93;4.43;;;4.70;99.90;;;;;;5074361;28;20467;-69
2021/01/07 10:52:11;;;;;;;5.15;3.45;;;4.90;99.90;;;;;;5074518;28;20485;-69
2021/01/07 10:54:57;;;;;;;7.03;4.65;;;4.80;99.90;;;;;;5074496;28;20035;-69
2021/01/07 10:57:38;;;;;;;5.95;3.70;;;4.80;99.90;;;;;;5074442;28;20046;-69
2021/01/07 11:00:22;;;;;;;6.13;3.83;;;4.80;99.90;;;;;;5074452;28;20070;-70
2021/01/07 11:03:26;;;;;;;4.63;3.20;;;4.80;99.90;;;;;;5074624;28;20473;-69
2021/01/07 11:05:57;;;;;;;7.82;3.63;;;4.90;99.90;;;;;;5074302;28;20090;-71
2021/01/07 11:08:41;;;;;;;5.70;3.75;;;4.90;99.90;;;;;;5073975;28;20032;-70
2021/01/07 11:11:23;;;;;;;5.30;2.88;;;4.90;99.90;;;;;;5074005;28;20040;-70
2021/01/07 11:13:56;;;;;;;4.80;2.83;;;4.90;99.90;;;;;;5074037;27;20036;-69
2021/01/07 11:16:39;;;;;;;5.00;3.10;;;4.90;99.80;;;;;;5073805;28;20033;-69
2021/01/07 11:19:09;;;;;;;5.15;2.78;;;4.90;99.90;;;;;;5073811;28;20032;-71
2021/01/07 11:21:45;;;;;;;4.88;2.50;;;4.90;99.70;;;;;;5073343;28;20025;-72
2021/01/07 11:24:11;;;;;;;4.78;2.83;;;4.90;99.40;;;;;;5074249;28;20024;-73
2021/01/07 11:26:39;;;;;;;5.38;2.90;;;4.80;99.40;;;;;;5073444;28;20040;-72
2021/01/07 11:29:06;;;;;;;;;;;4.80;99.50;;;;;;5074250;28;20038;-71
2021/01/07 11:31:36;;;;;;;4.50;2.90;;;4.80;99.70;;;;;;5073796;28;19947;-73
2021/01/07 11:34:02;;;;;;;5.70;2.78;;;4.70;99.40;;;;;;5072587;28;20060;-71
2021/01/07 11:36:37;;;;;;;6.72;3.05;;;4.50;99.70;;;;;;5073506;28;20025;-72
2021/01/07 11:39:04;;;;;;;5.47;3.20;;;4.50;99.90;;;;;;5074716;28;20154;-72
2021/01/07 11:41:56;;;;;;;4.93;2.90;;;4.80;99.90;;;;;;5073469;28;20032;-72
2021/01/07 11:44:36;;;;;;;7.75;3.45;;;4.80;99.90;;;;;;5073137;28;20036;-72
2021/01/07 11:47:07;;;;;;;5.18;3.38;;;4.80;99.80;;;;;;5073447;28;20059;-72
2021/01/07 11:49:40;;;;;;;5.18;2.85;;;5.10;99.90;;;;;;5073025;28;20044;-71
2021/01/07 11:52:08;;;;;;;5.35;3.58;;;5.00;99.70;;;;;;5072971;28;20086;-79
2021/01/07 11:54:36;;;;;;;;;;;5.00;99.60;;;;;;5072325;28;20361;-73
2021/01/07 11:57:02;;;;;;;;;;;5.00;99.70;;;;;;5075095;28;20002;-72
2021/01/07 11:59:30;;;;;;;4.20;2.65;;;5.00;99.60;;;;;;5073051;28;19984;-72
2021/01/07 12:01:56;;;;;;;4.43;2.30;;;5.20;99.60;;;;;;5073152;28;20111;-72
2021/01/07 12:04:24;;;;;;;3.67;2.25;;;4.80;99.50;;;;;;5071880;28;20081;-72
2021/01/07 12:06:55;;;;;;;;;;;4.80;99.90;;;;;;5073078;28;20056;-72
2021/01/07 12:09:32;;;;;;;5.47;3.45;;;4.90;99.80;;;;;;5072779;28;20288;-73
2021/01/07 12:12:09;;;;;;;4.43;2.45;;;4.80;99.80;;;;;;5073820;28;20036;-73
2021/01/07 12:14:42;;;;;;;3.50;2.08;;;4.90;99.70;;;;;;5071542;28;20162;-74
2021/01/07 12:17:09;;;;;;;6.10;3.13;;;4.80;99.60;;;;;;5071543;28;20516;-73
2021/01/07 12:19:35;;;;;;;4.70;2.65;;;4.70;99.90;;;;;;5071530;28;20044;-71
2021/01/07 12:22:07;;;;;;;4.40;3.05;;;4.90;99.90;;;;;;5072672;28;20430;-72
2021/01/07 12:24:34;;;;;;;5.63;3.20;;;5.00;99.90;;;;;;5072402;28;20358;-73
2021/01/07 12:27:01;;;;;;;5.45;2.63;;;5.10;99.80;;;;;;5073771;28;20044;-72
2021/01/07 12:29:27;;;;;;;5.03;2.70;;;5.10;99.60;;;;;;5072378;28;20327;-72
2021/01/07 12:31:55;;;;;;;3.38;2.58;;;5.10;99.40;;;;;;5072345;28;20358;-72
2021/01/07 12:34:54;;;;;;;5.35;2.50;;;5.10;99.30;;;;;;5072534;28;20058;-72
2021/01/07 12:37:21;;;;;;;5.22;2.80;;;5.30;99.30;;;;;;5071290;28;20130;-72
2021/01/07 12:40:19;;;;;;;2.80;2.10;;;5.20;98.80;;;;;;5072150;28;20054;-73
2021/01/07 12:43:04;;;;;;;4.28;2.58;;;5.10;98.70;;;;;;5068083;28;20035;-72
2021/01/07 12:45:33;;;;;;;7.90;2.95;;;5.00;99.10;;;;;;5072014;28;20039;-72
2021/01/07 12:47:59;;;;;;;5.20;3.05;;;5.00;99.00;;;;;;5073714;28;20024;-72
2021/01/07 12:50:25;;;;;;;5.55;3.42;;;4.90;99.20;;;;;;5071005;28;20036;-72
2021/01/07 12:52:51;;;;;;;5.20;2.97;;;4.80;99.20;;;;;;5071105;28;20112;-72
2021/01/07 12:55:17;;;;;;;4.57;2.60;;;4.90;99.20;;;;;;5072227;28;20429;-71
2021/01/07 12:57:54;;;;;;;5.03;2.72;;;4.80;99.10;;;;;;5071760;28;20530;-72
2021/01/07 13:00:26;;;;;;;5.97;2.40;;;4.70;98.70;;;;;;5071576;28;20020;-71